createdAt,value
2018-12-24T00:00:39.282Z,80.19
2018-12-24T00:03:29.589Z,79.36
2018-12-24T00:06:19.465Z,82.00
2018-12-24T00:09:10.149Z,82.12
2018-12-24T00:11:52.396Z,81.09
2018-12-24T00:17:50.824Z,80.62
2018-12-24T00:20:40.394Z,81.26
2018-12-24T00:23:29.990Z,81.34
2018-12-24T00:26:19.536Z,80.94
2018-12-24T00:29:09.109Z,82.45
2018-12-24T00:31:59.299Z,83.19
2018-12-24T00:34:49.369Z,82.44
2018-12-24T00:37:38.935Z,82.53
2018-12-24T00:40:28.491Z,84.34
2018-12-24T00:43:18.811Z,84.28
2018-12-24T00:49:17.216Z,82.04
2018-12-24T00:52:07.304Z,82.77
2018-12-24T00:54:57.394Z,83.82
2018-12-24T00:57:47.484Z,82.35
2018-12-24T01:00:37.905Z,82.05
2018-12-24T01:03:46.428Z,80.65
2018-12-24T01:06:36.008Z,78.76
2018-12-24T01:09:25.598Z,79.73
2018-12-24T01:12:08.046Z,79.37
2018-12-24T01:14:57.604Z,79.57
2018-12-24T01:17:47.629Z,79.33
2018-12-24T01:20:37.174Z,81.63
2018-12-24T01:26:22.244Z,78.37
2018-12-24T01:29:11.811Z,80.51
2018-12-24T01:32:01.876Z,79.12
2018-12-24T01:34:51.952Z,79.78
2018-12-24T01:40:36.425Z,76.57
2018-12-24T01:43:26.523Z,75.38
2018-12-24T01:46:16.607Z,75.32
2018-12-24T01:49:06.192Z,78.38
2018-12-24T01:51:55.747Z,79.15
2018-12-24T01:54:45.322Z,78.67
2018-12-24T01:57:35.933Z,80.66
2018-12-24T02:00:25.501Z,80.23
2018-12-24T02:03:15.078Z,78.99
2018-12-24T02:06:05.179Z,78.63
2018-12-24T02:08:54.780Z,79.16
2018-12-24T02:11:36.832Z,81.20
2018-12-24T02:14:26.915Z,78.86
2018-12-24T02:17:16.480Z,77.72
2018-12-24T02:20:06.445Z,78.10
2018-12-24T02:22:56.485Z,77.53
2018-12-24T02:25:46.576Z,77.91
2018-12-24T02:28:36.167Z,77.90
2018-12-24T02:31:25.767Z,78.96
2018-12-24T02:34:15.826Z,78.78
2018-12-24T02:37:05.393Z,77.23
2018-12-24T02:39:55.023Z,78.08
2018-12-24T02:42:52.234Z,79.29
2018-12-24T02:45:36.181Z,78.69
2018-12-24T02:48:25.781Z,78.13
2018-12-24T02:51:15.379Z,78.74
2018-12-24T02:54:05.388Z,77.83
2018-12-24T02:56:55.498Z,78.42
2018-12-24T02:59:45.071Z,76.93
2018-12-24T03:02:34.643Z,78.05
2018-12-24T03:05:24.654Z,76.42
2018-12-24T03:08:14.233Z,77.46
2018-12-24T03:10:56.968Z,75.82
2018-12-24T03:13:46.558Z,75.42
2018-12-24T03:16:36.131Z,76.32
2018-12-24T03:19:25.741Z,76.19
2018-12-24T03:22:15.293Z,75.96
2018-12-24T03:28:20.415Z,74.17
2018-12-24T03:31:28.947Z,74.76
2018-12-24T03:34:19.517Z,74.92
2018-12-24T03:37:09.086Z,75.61
2018-12-24T03:39:58.691Z,76.50
2018-12-24T03:42:48.241Z,75.71
2018-12-24T03:45:37.812Z,75.79
2018-12-24T03:51:35.791Z,75.96
2018-12-24T03:54:25.375Z,76.82
2018-12-24T03:57:14.943Z,76.95
2018-12-24T04:03:20.355Z,77.41
2018-12-24T04:06:10.356Z,78.74
2018-12-24T04:09:00.364Z,77.37
2018-12-24T04:11:42.629Z,77.87
2018-12-24T04:14:32.643Z,78.62
2018-12-24T04:17:22.210Z,79.61
2018-12-24T04:20:11.876Z,79.95
2018-12-24T04:23:01.458Z,77.83
2018-12-24T04:25:51.046Z,78.55
2018-12-24T04:28:40.622Z,78.63
2018-12-24T04:31:30.202Z,76.92
2018-12-24T04:34:20.098Z,77.49
2018-12-24T04:37:09.671Z,79.93
2018-12-24T04:39:59.240Z,79.62
2018-12-24T04:42:49.281Z,78.19
2018-12-24T04:45:39.393Z,76.78
2018-12-24T04:48:28.959Z,77.29
2018-12-24T04:51:18.523Z,77.47
2018-12-24T04:54:08.106Z,77.81
2018-12-24T04:56:57.684Z,77.24
2018-12-24T05:00:06.749Z,77.17
2018-12-24T05:02:57.944Z,77.30
2018-12-24T05:05:47.536Z,76.84
2018-12-24T05:08:37.131Z,77.68
2018-12-24T05:11:19.285Z,77.48
2018-12-24T05:14:08.846Z,76.87
2018-12-24T05:16:58.451Z,76.52
2018-12-24T05:19:48.049Z,76.16
2018-12-24T05:22:45.599Z,77.20
2018-12-24T05:25:35.610Z,76.56
2018-12-24T05:28:25.173Z,75.46
2018-12-24T05:31:14.755Z,76.00
2018-12-24T05:34:04.605Z,75.97
2018-12-24T05:36:54.695Z,76.44
2018-12-24T05:39:44.251Z,77.37
2018-12-24T05:42:33.835Z,76.05
2018-12-24T05:45:23.418Z,77.37
2018-12-24T05:48:13.010Z,77.71
2018-12-24T05:51:03.216Z,77.22
2018-12-24T05:53:52.793Z,77.16
2018-12-24T05:56:42.889Z,75.81
2018-12-24T05:59:32.469Z,74.56
2018-12-24T06:02:22.041Z,76.06
2018-12-24T06:05:11.662Z,75.84
2018-12-24T06:08:01.330Z,77.62
2018-12-24T06:10:43.949Z,74.96
2018-12-24T06:13:33.558Z,75.47
2018-12-24T06:16:23.425Z,74.79
2018-12-24T06:19:13.003Z,75.08
2018-12-24T06:22:03.106Z,75.20
2018-12-24T06:24:53.199Z,74.62
2018-12-24T06:27:42.781Z,73.75
2018-12-24T06:30:32.358Z,73.26
2018-12-24T06:33:21.952Z,72.43
2018-12-24T06:36:11.550Z,71.87
2018-12-24T06:39:01.125Z,71.32
2018-12-24T06:41:50.725Z,70.92
2018-12-24T06:44:40.721Z,70.35
2018-12-24T06:47:30.310Z,70.50
2018-12-24T06:50:19.929Z,70.54
2018-12-24T06:53:09.527Z,70.15
2018-12-24T06:55:59.565Z,69.98
2018-12-24T06:58:49.111Z,69.69
2018-12-24T07:01:38.683Z,70.78
2018-12-24T07:04:28.311Z,70.69
2018-12-24T07:07:17.901Z,71.36
2018-12-24T07:10:07.632Z,71.17
2018-12-24T07:12:50.590Z,71.34
2018-12-24T07:15:40.177Z,71.11
2018-12-24T07:18:29.763Z,72.03
2018-12-24T07:21:19.345Z,71.88
2018-12-24T07:24:08.925Z,71.43
2018-12-24T07:29:55.181Z,71.03
2018-12-24T07:32:44.784Z,70.24
2018-12-24T07:35:34.376Z,70.38
2018-12-24T07:38:24.247Z,70.68
2018-12-24T07:41:13.828Z,71.02
2018-12-24T07:44:03.411Z,69.72
2018-12-24T07:46:53.001Z,70.39
2018-12-24T07:49:42.566Z,71.17
2018-12-24T07:52:32.677Z,71.35
2018-12-24T07:55:22.436Z,69.96
2018-12-24T07:58:11.983Z,70.53
2018-12-24T08:01:01.546Z,69.74
2018-12-24T08:03:51.231Z,70.88
2018-12-24T08:06:41.379Z,69.30
2018-12-24T08:09:30.953Z,69.17
2018-12-24T08:12:13.114Z,69.56
2018-12-24T08:15:02.707Z,69.96
2018-12-24T08:17:52.301Z,72.05
2018-12-24T08:20:41.877Z,71.02
2018-12-24T08:23:31.946Z,70.72
2018-12-24T08:26:21.542Z,70.25
2018-12-24T08:29:11.129Z,70.35
2018-12-24T08:32:01.291Z,68.77
2018-12-24T08:34:50.911Z,68.73
2018-12-24T08:37:40.513Z,69.53
2018-12-24T08:40:30.107Z,69.47
2018-12-24T08:43:20.204Z,69.77
2018-12-24T08:46:09.773Z,69.12
2018-12-24T08:48:59.328Z,69.21
2018-12-24T08:51:48.893Z,67.65
2018-12-24T08:54:38.900Z,66.60
2018-12-24T08:57:28.904Z,67.31
2018-12-24T09:00:19.000Z,66.22
2018-12-24T09:03:08.570Z,66.51
2018-12-24T09:05:58.117Z,67.91
2018-12-24T09:08:47.707Z,67.12
2018-12-24T09:11:30.292Z,67.28
2018-12-24T09:14:19.866Z,67.28
2018-12-24T09:17:09.422Z,67.62
2018-12-24T09:19:59.478Z,66.70
2018-12-24T09:22:49.055Z,68.30
2018-12-24T09:28:47.028Z,67.67
2018-12-24T09:31:36.592Z,68.19
2018-12-24T09:34:26.181Z,68.10
2018-12-24T09:37:15.756Z,67.09
2018-12-24T09:40:06.303Z,66.14
2018-12-24T09:42:56.373Z,67.52
2018-12-24T09:45:45.962Z,67.09
2018-12-24T09:48:35.556Z,67.25
2018-12-24T09:51:25.597Z,67.78
2018-12-24T09:57:11.408Z,67.61
2018-12-24T10:00:00.979Z,67.79
2018-12-24T10:02:59.325Z,69.01
2018-12-24T10:05:48.964Z,68.11
2018-12-24T10:08:38.564Z,68.77
2018-12-24T10:11:21.103Z,67.71
2018-12-24T10:14:11.100Z,68.13
2018-12-24T10:17:00.704Z,68.22
2018-12-24T10:19:50.327Z,69.26
2018-12-24T10:22:40.389Z,68.92
2018-12-24T10:25:29.966Z,67.90
2018-12-24T10:28:19.566Z,68.57
2018-12-24T10:31:09.141Z,67.01
2018-12-24T10:33:58.723Z,66.90
2018-12-24T10:36:48.848Z,66.77
2018-12-24T10:39:38.443Z,67.51
2018-12-24T10:42:27.987Z,67.16
2018-12-24T10:45:18.520Z,67.96
2018-12-24T10:48:08.517Z,67.60
2018-12-24T10:50:58.107Z,68.54
2018-12-24T10:53:48.165Z,67.99
2018-12-24T10:56:39.815Z,67.92
2018-12-24T10:59:29.045Z,67.75
2018-12-24T11:02:18.625Z,70.17
2018-12-24T11:05:08.379Z,71.31
2018-12-24T11:07:57.968Z,71.02
2018-12-24T11:10:47.574Z,71.71
2018-12-24T11:13:29.854Z,71.39
2018-12-24T11:16:19.499Z,70.50
2018-12-24T11:19:09.554Z,70.29
2018-12-24T11:21:59.662Z,69.51
2018-12-24T11:24:49.258Z,68.07
2018-12-24T11:27:38.816Z,68.67
2018-12-24T11:30:28.388Z,67.86
2018-12-24T11:33:18.387Z,66.97
2018-12-24T11:36:08.069Z,67.23
2018-12-24T11:38:58.126Z,66.82
2018-12-24T11:41:47.716Z,66.99
2018-12-24T11:47:32.848Z,66.79
2018-12-24T11:50:22.846Z,66.22
2018-12-24T11:53:12.439Z,67.45
2018-12-24T11:56:02.032Z,66.92
2018-12-24T11:58:51.591Z,65.94
2018-12-24T12:01:41.187Z,64.95
2018-12-24T12:04:31.191Z,64.84
2018-12-24T12:07:21.268Z,64.32
2018-12-24T12:12:58.309Z,64.37
2018-12-24T12:15:47.913Z,63.83
2018-12-24T12:18:37.510Z,62.78
2018-12-24T12:21:27.087Z,63.59
2018-12-24T12:24:16.817Z,63.86
2018-12-24T12:27:06.357Z,63.19
2018-12-24T12:29:56.451Z,62.79
2018-12-24T12:32:46.006Z,62.75
2018-12-24T12:35:35.582Z,63.12
2018-12-24T12:38:29.677Z,64.27
2018-12-24T12:41:16.467Z,62.44
2018-12-24T12:44:06.009Z,63.53
2018-12-24T12:46:55.631Z,62.75
2018-12-24T12:49:45.201Z,62.91
2018-12-24T12:52:35.310Z,62.29
2018-12-24T12:55:25.400Z,63.87
2018-12-24T12:58:14.981Z,63.96
2018-12-24T13:01:05.098Z,62.49
2018-12-24T13:03:54.706Z,62.21
2018-12-24T13:06:44.270Z,62.82
2018-12-24T13:09:34.817Z,62.93
2018-12-24T13:12:17.193Z,64.28
2018-12-24T13:15:07.306Z,64.48
2018-12-24T13:17:56.874Z,64.47
2018-12-24T13:20:46.456Z,64.95
2018-12-24T13:26:44.831Z,63.88
2018-12-24T13:29:34.963Z,64.52
2018-12-24T13:32:26.450Z,65.13
2018-12-24T13:35:15.861Z,65.65
2018-12-24T13:38:05.946Z,65.50
2018-12-24T13:40:56.016Z,64.39
2018-12-24T13:43:45.609Z,64.38
2018-12-24T13:46:36.106Z,64.80
2018-12-24T13:49:25.687Z,64.47
2018-12-24T13:52:15.770Z,65.46
2018-12-24T13:55:05.450Z,64.59
2018-12-24T13:57:55.023Z,64.70
2018-12-24T14:00:45.118Z,63.29
2018-12-24T14:03:34.673Z,64.57
2018-12-24T14:06:24.261Z,64.87
2018-12-24T14:09:13.812Z,63.87
2018-12-24T14:11:55.946Z,64.53
2018-12-24T14:14:45.537Z,64.07
2018-12-24T14:17:35.611Z,62.08
2018-12-24T14:20:25.216Z,62.60
2018-12-24T14:23:14.794Z,62.58
2018-12-24T14:26:24.146Z,62.76
2018-12-24T14:29:13.683Z,63.33
2018-12-24T14:32:03.276Z,63.69
2018-12-24T14:34:52.834Z,64.59
2018-12-24T14:37:42.397Z,63.97
2018-12-24T14:40:31.958Z,63.76
2018-12-24T14:43:21.525Z,63.70
2018-12-24T14:46:11.103Z,64.25
2018-12-24T14:49:01.414Z,63.66
2018-12-24T14:51:50.996Z,63.88
2018-12-24T14:54:41.040Z,64.22
2018-12-24T14:57:30.621Z,63.90
2018-12-24T15:00:20.868Z,63.19
2018-12-24T15:03:10.471Z,63.65
2018-12-24T15:06:00.047Z,64.58
2018-12-24T15:08:49.611Z,63.71
2018-12-24T15:11:39.199Z,64.54
2018-12-24T15:14:28.839Z,65.33
2018-12-24T15:17:18.409Z,64.67
2018-12-24T15:20:08.908Z,64.83
2018-12-24T15:22:58.495Z,65.48
2018-12-24T15:25:48.082Z,65.93
2018-12-24T15:31:25.972Z,65.15
2018-12-24T15:34:15.530Z,65.18
2018-12-24T15:37:05.111Z,65.56
2018-12-24T15:39:54.693Z,64.55
2018-12-24T15:42:44.709Z,65.54
2018-12-24T15:45:34.804Z,65.98
2018-12-24T15:48:24.412Z,65.69
2018-12-24T15:51:14.026Z,66.22
2018-12-24T15:57:12.025Z,67.03
2018-12-24T16:00:01.612Z,66.74
2018-12-24T16:02:52.906Z,66.66
2018-12-24T16:05:42.947Z,66.03
2018-12-24T16:08:33.030Z,65.40
2018-12-24T16:11:22.767Z,64.52
2018-12-24T16:14:31.369Z,64.88
2018-12-24T16:17:20.946Z,64.93
2018-12-24T16:20:10.507Z,64.47
2018-12-24T16:23:00.081Z,64.69
2018-12-24T16:25:49.653Z,65.27
2018-12-24T16:28:39.205Z,64.91
2018-12-24T16:31:28.874Z,64.40
2018-12-24T16:34:18.559Z,64.83
2018-12-24T16:37:08.106Z,64.95
2018-12-24T16:39:58.655Z,64.94
2018-12-24T16:42:48.235Z,65.18
2018-12-24T16:45:57.174Z,65.54
2018-12-24T16:48:46.745Z,65.17
2018-12-24T16:51:36.308Z,66.24
2018-12-24T16:54:25.899Z,65.29
2018-12-24T16:57:15.485Z,65.56
2018-12-24T17:00:06.265Z,65.03
2018-12-24T17:05:51.350Z,64.88
2018-12-24T17:08:40.924Z,65.15
2018-12-24T17:11:30.963Z,66.10
2018-12-24T17:14:20.556Z,66.55
2018-12-24T17:20:18.974Z,68.08
2018-12-24T17:26:03.754Z,67.46
2018-12-24T17:28:53.334Z,67.31
2018-12-24T17:31:43.339Z,67.96
2018-12-24T17:34:32.941Z,66.89
2018-12-24T17:37:22.613Z,67.20
2018-12-24T17:40:12.187Z,66.84
2018-12-24T17:43:01.783Z,66.37
2018-12-24T17:45:51.367Z,67.09
2018-12-24T17:48:40.982Z,67.00
2018-12-24T17:51:30.579Z,67.09
2018-12-24T17:54:20.148Z,67.15
2018-12-24T17:57:09.720Z,67.51
2018-12-24T17:59:59.302Z,67.29
2018-12-24T18:02:49.303Z,67.61
2018-12-24T18:05:38.895Z,67.88
2018-12-24T18:08:28.467Z,68.08
2018-12-24T18:11:18.110Z,67.64
2018-12-24T18:14:00.260Z,67.21
2018-12-24T18:16:49.839Z,67.04
2018-12-24T18:19:39.413Z,66.59
2018-12-24T18:22:48.481Z,67.02
2018-12-24T18:25:38.095Z,69.13
2018-12-24T18:28:27.668Z,66.97
2018-12-24T18:31:20.041Z,66.24
2018-12-24T18:34:08.575Z,67.70
2018-12-24T18:39:53.978Z,66.00
2018-12-24T18:42:44.070Z,65.70
2018-12-24T18:45:33.652Z,65.96
2018-12-24T18:51:32.150Z,66.80
2018-12-24T18:57:30.170Z,65.77
2018-12-24T19:00:19.735Z,66.42
2018-12-24T19:03:09.292Z,65.84
2018-12-24T19:05:58.891Z,66.03
2018-12-24T19:09:07.413Z,66.28
2018-12-24T19:11:57.400Z,66.09
2018-12-24T19:14:46.951Z,66.56
2018-12-24T19:17:41.480Z,66.98
2018-12-24T19:20:28.779Z,67.27
2018-12-24T19:23:18.974Z,67.00
2018-12-24T19:26:08.574Z,67.56
2018-12-24T19:28:58.156Z,66.85
2018-12-24T19:31:47.776Z,66.88
2018-12-24T19:34:37.798Z,67.12
2018-12-24T19:37:27.977Z,66.91
2018-12-24T19:40:18.044Z,67.97
2018-12-24T19:43:08.257Z,68.52
2018-12-24T19:45:57.826Z,68.54
2018-12-24T19:48:47.921Z,68.38
2018-12-24T19:51:37.552Z,67.77
2018-12-24T19:54:27.127Z,68.45
2018-12-24T19:57:16.741Z,68.27
2018-12-24T20:00:06.647Z,68.36
2018-12-24T20:02:56.802Z,68.33
2018-12-24T20:05:46.369Z,67.75
2018-12-24T20:08:36.699Z,69.58
2018-12-24T20:11:26.617Z,68.04
2018-12-24T20:14:08.960Z,68.61
2018-12-24T20:16:58.525Z,69.22
2018-12-24T20:22:43.184Z,67.77
2018-12-24T20:25:32.744Z,67.92
2018-12-24T20:28:22.505Z,67.79
2018-12-24T20:34:20.504Z,69.41
2018-12-24T20:37:10.067Z,67.83
2018-12-24T20:40:00.165Z,69.14
2018-12-24T20:42:49.739Z,68.57
2018-12-24T20:45:39.843Z,67.65
2018-12-24T20:48:29.412Z,68.10
2018-12-24T20:51:37.925Z,68.80
2018-12-24T20:54:28.019Z,69.19
2018-12-24T20:57:17.609Z,68.95
2018-12-24T21:00:07.899Z,69.23
2018-12-24T21:02:57.950Z,68.39
2018-12-24T21:05:48.193Z,70.40
2018-12-24T21:08:37.812Z,69.23
2018-12-24T21:11:27.378Z,70.01
2018-12-24T21:14:10.579Z,68.34
2018-12-24T21:17:01.557Z,68.79
2018-12-24T21:19:51.134Z,68.51
2018-12-24T21:22:40.713Z,68.08
2018-12-24T21:25:30.319Z,68.05
2018-12-24T21:28:19.883Z,68.13
2018-12-24T21:31:09.485Z,68.35
2018-12-24T21:33:59.067Z,68.88
2018-12-24T21:36:48.684Z,68.46
2018-12-24T21:39:38.789Z,68.12
2018-12-24T21:42:28.362Z,68.76
2018-12-24T21:45:17.947Z,68.65
2018-12-24T21:48:08.541Z,68.00
2018-12-24T21:50:58.110Z,68.62
2018-12-24T21:53:48.094Z,68.15
2018-12-24T21:56:37.675Z,68.92
2018-12-24T21:59:27.241Z,69.49
2018-12-24T22:02:16.814Z,69.93
2018-12-24T22:05:06.802Z,70.07
2018-12-24T22:07:56.356Z,70.60
2018-12-24T22:10:45.953Z,70.20
2018-12-24T22:13:28.610Z,70.05
2018-12-24T22:16:18.197Z,71.02
2018-12-24T22:19:07.753Z,70.36
2018-12-24T22:21:57.380Z,71.45
2018-12-24T22:24:47.494Z,70.10
2018-12-24T22:27:37.050Z,70.99
2018-12-24T22:30:26.621Z,71.54
2018-12-24T22:33:16.192Z,71.30
2018-12-24T22:36:05.789Z,71.81
2018-12-24T22:38:55.905Z,71.42
2018-12-24T22:41:45.475Z,71.77
2018-12-24T22:44:35.066Z,72.08
2018-12-24T22:47:24.682Z,71.85
2018-12-24T22:50:14.247Z,73.12
2018-12-24T22:55:59.602Z,73.53
2018-12-24T22:58:49.604Z,73.21
2018-12-24T23:01:39.182Z,72.32
2018-12-24T23:04:28.758Z,72.44
2018-12-24T23:10:13.084Z,72.78
2018-12-24T23:12:53.810Z,72.49
2018-12-24T23:15:43.864Z,73.61
2018-12-24T23:18:33.868Z,73.54
2018-12-24T23:21:23.436Z,73.12
2018-12-24T23:24:13.465Z,73.56
2018-12-24T23:27:03.020Z,74.04
2018-12-24T23:29:52.623Z,74.22
2018-12-24T23:32:42.209Z,74.73
2018-12-24T23:35:31.769Z,74.12
2018-12-24T23:38:21.355Z,74.15
2018-12-24T23:44:19.348Z,73.48
2018-12-24T23:47:09.351Z,74.15
2018-12-24T23:49:59.353Z,73.58
2018-12-24T23:52:48.929Z,74.38
2018-12-24T23:55:39.045Z,74.73
2018-12-24T23:58:28.664Z,74.06
